sensor_id;sensor_type;location;lat;lon;timestamp;pressure;altitude;pressure_sealevel;temperature;humidity
38038;BME280;23843;51.320;12.340;2023-07-28T00:00:42;99293.72;;;17.92;100.00
38038;BME280;23843;51.320;12.340;2023-07-28T00:03:08;99295.53;;;17.92;100.00
38038;BME280;23843;51.320;12.340;2023-07-28T00:05:35;99296.41;;;17.92;100.00
38038;BME280;23843;51.320;12.340;2023-07-28T00:08:01;99292.03;;;17.91;100.00
38038;BME280;23843;51.320;12.340;2023-07-28T00:10:26;99295.41;;;17.93;100.00
38038;BME280;23843;51.320;12.340;2023-07-28T00:12:52;99296.91;;;17.96;100.00
38038;BME280;23843;51.320;12.340;2023-07-28T00:15:17;99295.06;;;17.96;100.00
38038;BME280;23843;51.320;12.340;2023-07-28T00:17:43;99295.06;;;17.96;100.00
38038;BME280;23843;51.320;12.340;2023-07-28T00:20:09;99293.09;;;17.99;100.00
38038;BME280;23843;51.320;12.340;2023-07-28T00:22:36;99288.75;;;17.98;100.00
38038;BME280;23843;51.320;12.340;2023-07-28T00:25:01;99290.09;;;18.02;100.00
38038;BME280;23843;51.320;12.340;2023-07-28T00:27:27;99296.31;;;18.02;100.00
38038;BME280;23843;51.320;12.340;2023-07-28T00:29:52;99289.94;;;18.03;100.00
38038;BME280;23843;51.320;12.340;2023-07-28T00:32:18;99287.94;;;18.05;100.00
38038;BME280;23843;51.320;12.340;2023-07-28T00:34:43;99285.97;;;18.07;100.00
38038;BME280;23843;51.320;12.340;2023-07-28T00:37:09;99277.06;;;18.07;100.00
38038;BME280;23843;51.320;12.340;2023-07-28T00:39:36;99283.44;;;18.06;100.00
38038;BME280;23843;51.320;12.340;2023-07-28T00:42:01;99279.38;;;18.02;100.00
38038;BME280;23843;51.320;12.340;2023-07-28T00:44:26;99282.38;;;17.99;100.00
38038;BME280;23843;51.320;12.340;2023-07-28T00:46:52;99282.38;;;17.99;100.00
38038;BME280;23843;51.320;12.340;2023-07-28T00:49:18;99288.75;;;17.98;100.00
38038;BME280;23843;51.320;12.340;2023-07-28T00:51:43;99279.84;;;17.97;100.00
38038;BME280;23843;51.320;12.340;2023-07-28T00:54:09;99282.22;;;18.00;100.00
38038;BME280;23843;51.320;12.340;2023-07-28T00:56:36;99292.75;;;18.02;100.00
38038;BME280;23843;51.320;12.340;2023-07-28T00:59:02;99289.09;;;18.03;100.00
38038;BME280;23843;51.320;12.340;2023-07-28T01:01:27;99279.22;;;18.03;100.00
38038;BME280;23843;51.320;12.340;2023-07-28T01:03:53;99282.91;;;18.02;100.00
38038;BME280;23843;51.320;12.340;2023-07-28T01:06:25;99282.72;;;18.04;100.00
38038;BME280;23843;51.320;12.340;2023-07-28T01:08:56;99280.06;;;18.04;100.00
38038;BME280;23843;51.320;12.340;2023-07-28T01:11:22;99273.88;;;18.03;100.00
38038;BME280;23843;51.320;12.340;2023-07-28T01:13:49;99265.97;;;18.02;100.00
38038;BME280;23843;51.320;12.340;2023-07-28T01:16:14;99269.34;;;18.04;100.00
38038;BME280;23843;51.320;12.340;2023-07-28T01:18:40;99272.72;;;18.06;100.00
38038;BME280;23843;51.320;12.340;2023-07-28T01:21:09;99274.38;;;18.07;100.00
38038;BME280;23843;51.320;12.340;2023-07-28T01:23:44;99279.72;;;18.07;100.00
38038;BME280;23843;51.320;12.340;2023-07-28T01:26:15;99275.25;;;18.07;100.00
38038;BME280;23843;51.320;12.340;2023-07-28T01:28:43;99267.88;;;18.09;100.00
38038;BME280;23843;51.320;12.340;2023-07-28T01:31:09;99273.75;;;18.13;100.00
38038;BME280;23843;51.320;12.340;2023-07-28T01:33:35;99272.91;;;18.12;100.00
38038;BME280;23843;51.320;12.340;2023-07-28T01:36:01;99277.59;;;18.10;100.00
38038;BME280;23843;51.320;12.340;2023-07-28T01:38:26;99270.38;;;18.11;100.00
38038;BME280;23843;51.320;12.340;2023-07-28T01:40:52;99262.88;;;18.14;100.00
38038;BME280;23843;51.320;12.340;2023-07-28T01:43:17;99271.06;;;18.13;100.00
38038;BME280;23843;51.320;12.340;2023-07-28T01:45:44;99265.56;;;18.14;100.00
38038;BME280;23843;51.320;12.340;2023-07-28T01:48:10;99264.69;;;18.14;100.00
38038;BME280;23843;51.320;12.340;2023-07-28T01:50:35;99265.56;;;18.14;100.00
38038;BME280;23843;51.320;12.340;2023-07-28T01:53:01;99270.94;;;18.14;100.00
38038;BME280;23843;51.320;12.340;2023-07-28T01:55:26;99259.34;;;18.14;100.00
38038;BME280;23843;51.320;12.340;2023-07-28T01:57:55;99261.03;;;18.15;100.00
38038;BME280;23843;51.320;12.340;2023-07-28T02:00:21;99262.72;;;18.16;100.00
38038;BME280;23843;51.320;12.340;2023-07-28T02:02:48;99262.72;;;18.16;100.00
38038;BME280;23843;51.320;12.340;2023-07-28T02:05:14;99258.19;;;18.16;100.00
38038;BME280;23843;51.320;12.340;2023-07-28T02:07:39;99258.19;;;18.16;100.00
38038;BME280;23843;51.320;12.340;2023-07-28T02:10:05;99261.19;;;18.13;100.00
38038;BME280;23843;51.320;12.340;2023-07-28T02:12:31;99254.31;;;18.11;100.00
38038;BME280;23843;51.320;12.340;2023-07-28T02:14:56;99251.81;;;18.09;100.00
38038;BME280;23843;51.320;12.340;2023-07-28T02:17:22;99253.94;;;18.06;100.00
38038;BME280;23843;51.320;12.340;2023-07-28T02:19:49;99252.41;;;18.03;100.00
38038;BME280;23843;51.320;12.340;2023-07-28T02:22:14;99254.28;;;18.03;100.00
38038;BME280;23843;51.320;12.340;2023-07-28T02:24:40;99266.66;;;18.04;100.00
38038;BME280;23843;51.320;12.340;2023-07-28T02:27:05;99268.34;;;18.05;100.00
38038;BME280;23843;51.320;12.340;2023-07-28T02:29:31;99271.69;;;18.07;100.00
38038;BME280;23843;51.320;12.340;2023-07-28T02:31:56;99266.50;;;18.05;100.00
38038;BME280;23843;51.320;12.340;2023-07-28T02:34:26;99255.78;;;18.05;100.00
38038;BME280;23843;51.320;12.340;2023-07-28T02:36:52;99260.31;;;18.05;100.00
38038;BME280;23843;51.320;12.340;2023-07-28T02:39:18;99263.13;;;18.03;100.00
38038;BME280;23843;51.320;12.340;2023-07-28T02:41:44;99279.38;;;18.02;100.00
38038;BME280;23843;51.320;12.340;2023-07-28T02:44:09;99271.19;;;18.03;100.00
38038;BME280;23843;51.320;12.340;2023-07-28T02:46:35;99263.66;;;18.07;100.00
38038;BME280;23843;51.320;12.340;2023-07-28T02:49:00;99272.22;;;18.10;100.00
38038;BME280;23843;51.320;12.340;2023-07-28T02:51:26;99269.41;;;18.12;100.00
38038;BME280;23843;51.320;12.340;2023-07-28T02:53:52;99264.19;;;18.10;100.00
38038;BME280;23843;51.320;12.340;2023-07-28T02:56:18;99255.00;;;18.13;100.00
38038;BME280;23843;51.320;12.340;2023-07-28T02:58:43;99257.00;;;18.11;100.00
38038;BME280;23843;51.320;12.340;2023-07-28T03:01:09;99263.66;;;18.07;100.00
38038;BME280;23843;51.320;12.340;2023-07-28T03:03:34;99263.66;;;18.07;100.00
38038;BME280;23843;51.320;12.340;2023-07-28T03:06:00;99272.38;;;18.09;100.00
38038;BME280;23843;51.320;12.340;2023-07-28T03:08:25;99281.44;;;18.08;100.00
38038;BME280;23843;51.320;12.340;2023-07-28T03:10:56;99288.16;;;18.12;100.00
38038;BME280;23843;51.320;12.340;2023-07-28T03:13:21;99289.84;;;18.13;100.00
38038;BME280;23843;51.320;12.340;2023-07-28T03:15:47;99287.16;;;18.13;100.00
38038;BME280;23843;51.320;12.340;2023-07-28T03:18:12;99281.09;;;18.11;100.00
38038;BME280;23843;51.320;12.340;2023-07-28T03:20:39;99286.47;;;18.11;100.00
38038;BME280;23843;51.320;12.340;2023-07-28T03:23:05;99284.47;;;18.13;100.00
38038;BME280;23843;51.320;12.340;2023-07-28T03:25:30;99287.84;;;18.15;100.00
38038;BME280;23843;51.320;12.340;2023-07-28T03:27:57;99288.34;;;18.18;100.00
38038;BME280;23843;51.320;12.340;2023-07-28T03:30:23;99289.19;;;18.19;100.00
38038;BME280;23843;51.320;12.340;2023-07-28T03:32:48;99290.88;;;18.20;100.00
38038;BME280;23843;51.320;12.340;2023-07-28T03:35:14;99296.56;;;18.17;100.00
38038;BME280;23843;51.320;12.340;2023-07-28T03:37:39;99301.06;;;18.16;100.00
38038;BME280;23843;51.320;12.340;2023-07-28T03:40:06;99299.41;;;18.15;100.00
38038;BME280;23843;51.320;12.340;2023-07-28T03:42:32;99300.09;;;18.17;100.00
38038;BME280;23843;51.320;12.340;2023-07-28T03:44:58;99298.25;;;18.18;100.00
38038;BME280;23843;51.320;12.340;2023-07-28T03:47:24;99299.91;;;18.19;100.00
38038;BME280;23843;51.320;12.340;2023-07-28T03:49:49;99301.75;;;18.18;100.00
38038;BME280;23843;51.320;12.340;2023-07-28T03:52:15;99293.44;;;18.22;100.00
38038;BME280;23843;51.320;12.340;2023-07-28T03:54:40;99292.56;;;18.21;100.00
38038;BME280;23843;51.320;12.340;2023-07-28T03:57:06;99294.25;;;18.22;100.00
38038;BME280;23843;51.320;12.340;2023-07-28T03:59:32;99291.25;;;18.25;100.00
38038;BME280;23843;51.320;12.340;2023-07-28T04:01:58;99291.59;;;18.22;100.00
38038;BME280;23843;51.320;12.340;2023-07-28T04:04:24;99293.25;;;18.23;100.00
38038;BME280;23843;51.320;12.340;2023-07-28T04:06:49;99301.28;;;18.23;100.00
38038;BME280;23843;51.320;12.340;2023-07-28T04:09:15;99294.25;;;18.22;100.00
38038;BME280;23843;51.320;12.340;2023-07-28T04:11:40;99292.25;;;18.24;100.00
38038;BME280;23843;51.320;12.340;2023-07-28T04:14:06;99288.91;;;18.22;100.00
38038;BME280;23843;51.320;12.340;2023-07-28T04:16:32;99286.22;;;18.22;100.00
38038;BME280;23843;51.320;12.340;2023-07-28T04:18:59;99290.19;;;18.18;100.00
38038;BME280;23843;51.320;12.340;2023-07-28T04:21:25;99289.19;;;18.19;100.00
38038;BME280;23843;51.320;12.340;2023-07-28T04:23:50;99297.22;;;18.19;100.00
38038;BME280;23843;51.320;12.340;2023-07-28T04:26:16;99293.72;;;18.18;100.00
38038;BME280;23843;51.320;12.340;2023-07-28T04:28:42;99294.56;;;18.19;100.00
38038;BME280;23843;51.320;12.340;2023-07-28T04:31:07;99310.63;;;18.19;100.00
38038;BME280;23843;51.320;12.340;2023-07-28T04:33:33;99304.44;;;18.18;100.00
38038;BME280;23843;51.320;12.340;2023-07-28T04:36:02;99308.50;;;18.23;100.00
38038;BME280;23843;51.320;12.340;2023-07-28T04:38:27;99302.13;;;18.24;100.00
38038;BME280;23843;51.320;12.340;2023-07-28T04:40:53;99302.13;;;18.24;100.00
38038;BME280;23843;51.320;12.340;2023-07-28T04:43:18;99303.81;;;18.25;100.00
38038;BME280;23843;51.320;12.340;2023-07-28T04:45:45;99300.66;;;18.29;100.00
38038;BME280;23843;51.320;12.340;2023-07-28T04:48:10;99305.56;;;18.34;100.00
38038;BME280;23843;51.320;12.340;2023-07-28T04:50:36;99308.44;;;18.40;100.00
38038;BME280;23843;51.320;12.340;2023-07-28T04:53:03;99309.19;;;18.51;100.00
38038;BME280;23843;51.320;12.340;2023-07-28T04:55:28;99305.50;;;18.60;100.00
38038;BME280;23843;51.320;12.340;2023-07-28T04:57:54;99306.88;;;18.64;100.00
38038;BME280;23843;51.320;12.340;2023-07-28T05:00:20;99304.06;;;18.74;100.00
38038;BME280;23843;51.320;12.340;2023-07-28T05:02:45;99302.91;;;19.11;100.00
38038;BME280;23843;51.320;12.340;2023-07-28T05:05:11;99300.25;;;20.58;100.00
38038;BME280;23843;51.320;12.340;2023-07-28T05:07:36;99298.41;;;20.42;100.00
38038;BME280;23843;51.320;12.340;2023-07-28T05:10:04;99297.75;;;20.24;100.00
38038;BME280;23843;51.320;12.340;2023-07-28T05:12:29;99312.94;;;20.00;100.00
38038;BME280;23843;51.320;12.340;2023-07-28T05:14:55;99311.91;;;19.77;100.00
38038;BME280;23843;51.320;12.340;2023-07-28T05:17:20;99312.41;;;19.56;100.00
38038;BME280;23843;51.320;12.340;2023-07-28T05:19:46;99313.19;;;19.40;100.00
38038;BME280;23843;51.320;12.340;2023-07-28T05:22:11;99307.81;;;19.32;100.00
38038;BME280;23843;51.320;12.340;2023-07-28T05:24:37;99303.78;;;19.28;100.00
38038;BME280;23843;51.320;12.340;2023-07-28T05:27:04;99303.94;;;19.26;100.00
38038;BME280;23843;51.320;12.340;2023-07-28T05:29:29;99305.09;;;19.23;100.00
38038;BME280;23843;51.320;12.340;2023-07-28T05:31:55;99309.78;;;19.21;100.00
38038;BME280;23843;51.320;12.340;2023-07-28T05:34:20;99309.78;;;19.21;100.00
38038;BME280;23843;51.320;12.340;2023-07-28T05:36:45;99318.38;;;19.25;100.00
38038;BME280;23843;51.320;12.340;2023-07-28T05:39:11;99335.34;;;19.34;100.00
38038;BME280;23843;51.320;12.340;2023-07-28T05:41:37;99336.88;;;19.36;100.00
38038;BME280;23843;51.320;12.340;2023-07-28T05:44:04;99328.97;;;19.35;100.00
38038;BME280;23843;51.320;12.340;2023-07-28T05:46:30;99338.03;;;19.34;100.00
38038;BME280;23843;51.320;12.340;2023-07-28T05:48:55;99335.34;;;19.34;100.00
38038;BME280;23843;51.320;12.340;2023-07-28T05:51:21;99337.38;;;19.40;100.00
38038;BME280;23843;51.320;12.340;2023-07-28T05:53:47;99349.97;;;19.48;100.00
38038;BME280;23843;51.320;12.340;2023-07-28T05:56:12;99355.53;;;19.62;100.00
38038;BME280;23843;51.320;12.340;2023-07-28T05:58:38;99356.91;;;19.66;100.00
38038;BME280;23843;51.320;12.340;2023-07-28T06:01:05;99368.00;;;19.72;100.00
38038;BME280;23843;51.320;12.340;2023-07-28T06:03:31;99363.84;;;19.85;100.00
38038;BME280;23843;51.320;12.340;2023-07-28T06:05:57;99366.53;;;20.10;100.00
38038;BME280;23843;51.320;12.340;2023-07-28T06:08:22;99363.66;;;20.36;100.00
38038;BME280;23843;51.320;12.340;2023-07-28T06:10:48;99359.78;;;20.63;100.00
38038;BME280;23843;51.320;12.340;2023-07-28T06:13:13;99357.06;;;21.11;100.00
38038;BME280;23843;51.320;12.340;2023-07-28T06:15:39;99363.31;;;21.43;100.00
38038;BME280;23843;51.320;12.340;2023-07-28T06:20:31;99367.31;;;22.01;100.00
38038;BME280;23843;51.320;12.340;2023-07-28T06:22:57;99364.91;;;22.06;100.00
38038;BME280;23843;51.320;12.340;2023-07-28T06:25:22;99370.06;;;21.93;100.00
38038;BME280;23843;51.320;12.340;2023-07-28T06:27:48;99352.34;;;21.75;100.00
38038;BME280;23843;51.320;12.340;2023-07-28T06:30:13;99363.47;;;21.72;100.00
38038;BME280;23843;51.320;12.340;2023-07-28T06:32:39;99361.75;;;21.56;100.00
38038;BME280;23843;51.320;12.340;2023-07-28T06:35:07;99376.63;;;21.44;100.00
38038;BME280;23843;51.320;12.340;2023-07-28T06:37:32;99385.25;;;21.40;100.00
38038;BME280;23843;51.320;12.340;2023-07-28T06:39:58;99383.88;;;21.35;100.00
38038;BME280;23843;51.320;12.340;2023-07-28T06:42:24;99393.66;;;21.36;100.00
38038;BME280;23843;51.320;12.340;2023-07-28T06:44:50;99391.91;;;21.52;100.00
38038;BME280;23843;51.320;12.340;2023-07-28T06:47:16;99389.78;;;21.70;100.00
38038;BME280;23843;51.320;12.340;2023-07-28T06:49:41;99388.09;;;21.69;100.00
38038;BME280;23843;51.320;12.340;2023-07-28T06:52:08;99396.19;;;21.69;100.00
38038;BME280;23843;51.320;12.340;2023-07-28T06:54:34;99390.94;;;21.76;100.00
38038;BME280;23843;51.320;12.340;2023-07-28T06:56:59;99400.00;;;21.75;100.00
38038;BME280;23843;51.320;12.340;2023-07-28T06:59:25;99387.41;;;21.75;100.00
38038;BME280;23843;51.320;12.340;2023-07-28T07:01:54;99392.88;;;21.82;100.00
38038;BME280;23843;51.320;12.340;2023-07-28T07:04:19;99393.72;;;22.29;100.00
38038;BME280;23843;51.320;12.340;2023-07-28T07:06:45;99394.97;;;23.08;100.00
38038;BME280;23843;51.320;12.340;2023-07-28T07:09:12;99393.03;;;23.54;100.00
38038;BME280;23843;51.320;12.340;2023-07-28T07:11:37;99390.88;;;23.64;100.00
38038;BME280;23843;51.320;12.340;2023-07-28T07:14:03;99397.56;;;23.68;100.00
38038;BME280;23843;51.320;12.340;2023-07-28T07:16:28;99392.06;;;23.76;100.00
38038;BME280;23843;51.320;12.340;2023-07-28T07:18:54;99385.50;;;24.07;100.00
38038;BME280;23843;51.320;12.340;2023-07-28T07:21:19;99383.91;;;25.38;100.00
38038;BME280;23843;51.320;12.340;2023-07-28T07:23:45;99390.06;;;25.60;96.61
38038;BME280;23843;51.320;12.340;2023-07-28T07:26:11;99377.00;;;25.91;95.17
38038;BME280;23843;51.320;12.340;2023-07-28T07:28:38;99387.94;;;25.62;93.29
38038;BME280;23843;51.320;12.340;2023-07-28T07:31:04;99382.00;;;26.00;94.31
38038;BME280;23843;51.320;12.340;2023-07-28T07:33:29;99386.59;;;26.86;88.95
38038;BME280;23843;51.320;12.340;2023-07-28T07:35:55;99382.75;;;27.21;83.98
38038;BME280;23843;51.320;12.340;2023-07-28T07:38:20;99386.56;;;26.93;76.17
38038;BME280;23843;51.320;12.340;2023-07-28T07:40:49;99383.28;;;26.38;78.91
38038;BME280;23843;51.320;12.340;2023-07-28T07:43:16;99384.94;;;25.99;82.20
38038;BME280;23843;51.320;12.340;2023-07-28T07:45:41;99386.16;;;25.90;84.24
38038;BME280;23843;51.320;12.340;2023-07-28T07:48:07;99390.38;;;26.45;89.20
38038;BME280;23843;51.320;12.340;2023-07-28T07:50:32;99389.84;;;27.15;85.94
38038;BME280;23843;51.320;12.340;2023-07-28T07:52:58;99394.09;;;26.98;77.28
38038;BME280;23843;51.320;12.340;2023-07-28T07:55:23;99393.13;;;26.65;80.62
38038;BME280;23843;51.320;12.340;2023-07-28T07:57:49;99387.03;;;26.17;78.08
38038;BME280;23843;51.320;12.340;2023-07-28T08:00:16;99401.59;;;25.89;84.42
38038;BME280;23843;51.320;12.340;2023-07-28T08:02:42;99396.84;;;25.98;83.99
38038;BME280;23843;51.320;12.340;2023-07-28T08:05:08;99404.69;;;25.79;84.13
38038;BME280;23843;51.320;12.340;2023-07-28T08:07:33;99405.28;;;25.75;79.88
38038;BME280;23843;51.320;12.340;2023-07-28T08:09:58;99408.78;;;26.43;77.09
38038;BME280;23843;51.320;12.340;2023-07-28T08:12:24;99409.59;;;26.37;76.95
38038;BME280;23843;51.320;12.340;2023-07-28T08:14:49;99414.19;;;26.50;77.67
38038;BME280;23843;51.320;12.340;2023-07-28T08:17:17;99411.47;;;26.90;72.87
38038;BME280;23843;51.320;12.340;2023-07-28T08:19:42;99420.88;;;26.74;73.36
38038;BME280;23843;51.320;12.340;2023-07-28T08:22:08;99420.06;;;26.80;75.46
38038;BME280;23843;51.320;12.340;2023-07-28T08:24:33;99421.94;;;26.60;69.24
38038;BME280;23843;51.320;12.340;2023-07-28T08:26:59;99428.59;;;26.37;74.61
38038;BME280;23843;51.320;12.340;2023-07-28T08:29:24;99421.91;;;26.33;73.26
38038;BME280;23843;51.320;12.340;2023-07-28T08:31:50;99438.41;;;26.38;71.91
38038;BME280;23843;51.320;12.340;2023-07-28T08:34:17;99430.69;;;26.22;72.23
38038;BME280;23843;51.320;12.340;2023-07-28T08:36:42;99443.78;;;25.98;74.99
38038;BME280;23843;51.320;12.340;2023-07-28T08:39:08;99448.56;;;25.90;75.46
38038;BME280;23843;51.320;12.340;2023-07-28T08:41:36;99452.88;;;25.77;73.18
38038;BME280;23843;51.320;12.340;2023-07-28T08:44:04;99454.97;;;25.69;75.69
38038;BME280;23843;51.320;12.340;2023-07-28T08:46:31;99451.53;;;25.47;82.01
38038;BME280;23843;51.320;12.340;2023-07-28T08:48:59;99457.69;;;25.27;81.54
38038;BME280;23843;51.320;12.340;2023-07-28T08:51:26;99450.31;;;25.56;81.16
38038;BME280;23843;51.320;12.340;2023-07-28T08:53:51;99438.03;;;26.68;83.02
38038;BME280;23843;51.320;12.340;2023-07-28T08:56:17;99436.53;;;28.91;83.25
38038;BME280;23843;51.320;12.340;2023-07-28T08:58:43;61191.53;;;-145.91;100.00
38038;BME280;23843;51.320;12.340;2023-07-28T09:01:10;99449.25;;;30.19;65.82
38038;BME280;23843;51.320;12.340;2023-07-28T09:03:39;99443.03;;;31.77;59.16
38038;BME280;23843;51.320;12.340;2023-07-28T09:06:07;61191.53;;;-145.91;100.00
38038;BME280;23843;51.320;12.340;2023-07-28T09:08:35;61191.53;;;-145.91;100.00
38038;BME280;23843;51.320;12.340;2023-07-28T09:11:03;99443.03;;;31.77;59.16
38038;BME280;23843;51.320;12.340;2023-07-28T09:13:35;99435.72;;;36.90;46.63
38038;BME280;23843;51.320;12.340;2023-07-28T09:16:01;61191.53;;;-145.91;100.00
38038;BME280;23843;51.320;12.340;2023-07-28T09:18:26;61191.53;;;-145.91;100.00
38038;BME280;23843;51.320;12.340;2023-07-28T09:20:52;61191.53;;;-145.91;100.00
38038;BME280;23843;51.320;12.340;2023-07-28T09:23:28;61191.53;;;-145.91;100.00
38038;BME280;23843;51.320;12.340;2023-07-28T09:26:00;61191.53;;;-145.91;100.00
38038;BME280;23843;51.320;12.340;2023-07-28T09:28:36;61191.53;;;-145.91;100.00
38038;BME280;23843;51.320;12.340;2023-07-28T09:31:03;61191.53;;;-145.91;100.00
38038;BME280;23843;51.320;12.340;2023-07-28T09:33:30;61191.53;;;-145.91;100.00
38038;BME280;23843;51.320;12.340;2023-07-28T09:35:56;61191.53;;;-145.91;100.00
38038;BME280;23843;51.320;12.340;2023-07-28T09:38:22;61191.53;;;-145.91;100.00
38038;BME280;23843;51.320;12.340;2023-07-28T09:40:48;61191.53;;;-145.91;100.00
38038;BME280;23843;51.320;12.340;2023-07-28T09:43:15;61191.53;;;-145.91;100.00
38038;BME280;23843;51.320;12.340;2023-07-28T09:45:42;99468.84;;;32.22;42.88
38038;BME280;23843;51.320;12.340;2023-07-28T09:48:09;99460.38;;;31.66;48.09
38038;BME280;23843;51.320;12.340;2023-07-28T09:50:37;99461.28;;;31.07;46.73
38038;BME280;23843;51.320;12.340;2023-07-28T09:53:08;99474.88;;;30.60;48.50
38038;BME280;23843;51.320;12.340;2023-07-28T09:55:38;99463.91;;;29.95;47.58
38038;BME280;23843;51.320;12.340;2023-07-28T09:58:04;99471.03;;;29.59;49.15
38038;BME280;23843;51.320;12.340;2023-07-28T10:00:34;99469.44;;;29.33;49.07
38038;BME280;23843;51.320;12.340;2023-07-28T10:03:01;99463.91;;;29.21;47.63
38038;BME280;23843;51.320;12.340;2023-07-28T10:05:27;99467.56;;;29.15;47.88
38038;BME280;23843;51.320;12.340;2023-07-28T10:07:53;99468.31;;;28.97;48.70
38038;BME280;23843;51.320;12.340;2023-07-28T10:10:19;99464.34;;;28.99;48.75
38038;BME280;23843;51.320;12.340;2023-07-28T10:12:47;99468.63;;;28.89;49.23
38038;BME280;23843;51.320;12.340;2023-07-28T10:15:13;99472.25;;;29.08;49.72
38038;BME280;23843;51.320;12.340;2023-07-28T10:17:43;99469.09;;;29.29;51.02
38038;BME280;23843;51.320;12.340;2023-07-28T10:20:26;99466.56;;;29.28;49.98
38038;BME280;23843;51.320;12.340;2023-07-28T10:22:52;99468.84;;;29.31;49.62
38038;BME280;23843;51.320;12.340;2023-07-28T10:25:22;99472.72;;;29.23;49.92
38038;BME280;23843;51.320;12.340;2023-07-28T10:27:51;99474.28;;;29.31;49.09
38038;BME280;23843;51.320;12.340;2023-07-28T10:30:17;99478.22;;;29.16;50.24
38038;BME280;23843;51.320;12.340;2023-07-28T10:32:45;99473.22;;;29.13;50.76
38038;BME280;23843;51.320;12.340;2023-07-28T10:35:23;99482.47;;;29.12;51.14
38038;BME280;23843;51.320;12.340;2023-07-28T10:37:49;99480.00;;;29.04;50.13
38038;BME280;23843;51.320;12.340;2023-07-28T10:40:30;99493.16;;;28.89;49.92
38038;BME280;23843;51.320;12.340;2023-07-28T10:42:56;99491.84;;;28.73;50.90
38038;BME280;23843;51.320;12.340;2023-07-28T10:45:24;99491.66;;;28.68;50.34
38038;BME280;23843;51.320;12.340;2023-07-28T10:47:52;99476.91;;;28.50;49.90
38038;BME280;23843;51.320;12.340;2023-07-28T10:50:18;99488.06;;;28.42;52.09
38038;BME280;23843;51.320;12.340;2023-07-28T10:52:45;99482.47;;;28.30;52.71
38038;BME280;23843;51.320;12.340;2023-07-28T10:55:15;99476.41;;;28.28;51.24
38038;BME280;23843;51.320;12.340;2023-07-28T10:57:41;99482.44;;;28.37;52.67
38038;BME280;23843;51.320;12.340;2023-07-28T11:00:08;99491.41;;;28.44;52.18
38038;BME280;23843;51.320;12.340;2023-07-28T11:02:37;99484.81;;;28.58;52.23
38038;BME280;23843;51.320;12.340;2023-07-28T11:05:09;99481.97;;;28.72;51.66
38038;BME280;23843;51.320;12.340;2023-07-28T11:07:35;99473.97;;;28.77;50.38
38038;BME280;23843;51.320;12.340;2023-07-28T11:10:01;99483.09;;;28.64;50.46
38038;BME280;23843;51.320;12.340;2023-07-28T11:12:27;99485.75;;;28.46;49.36
38038;BME280;23843;51.320;12.340;2023-07-28T11:14:52;99474.31;;;28.30;50.00
38038;BME280;23843;51.320;12.340;2023-07-28T11:17:18;99479.78;;;28.24;50.52
38038;BME280;23843;51.320;12.340;2023-07-28T11:19:43;99483.19;;;28.19;50.39
38038;BME280;23843;51.320;12.340;2023-07-28T11:22:10;99476.47;;;28.22;51.48
38038;BME280;23843;51.320;12.340;2023-07-28T11:24:36;99472.19;;;28.32;50.87
38038;BME280;23843;51.320;12.340;2023-07-28T11:27:01;99477.69;;;28.26;51.19
38038;BME280;23843;51.320;12.340;2023-07-28T11:29:28;99468.72;;;28.18;51.63
38038;BME280;23843;51.320;12.340;2023-07-28T11:31:53;99474.66;;;28.09;52.00
38038;BME280;23843;51.320;12.340;2023-07-28T11:34:19;99472.44;;;27.92;52.02
38038;BME280;23843;51.320;12.340;2023-07-28T11:36:44;99472.44;;;27.92;51.90
38038;BME280;23843;51.320;12.340;2023-07-28T11:39:11;99466.75;;;28.01;51.64
38038;BME280;23843;51.320;12.340;2023-07-28T11:41:38;99468.59;;;28.07;51.85
38038;BME280;23843;51.320;12.340;2023-07-28T11:44:04;99462.38;;;28.00;51.76
38038;BME280;23843;51.320;12.340;2023-07-28T11:46:34;99475.38;;;27.91;51.54
38038;BME280;23843;51.320;12.340;2023-07-28T11:49:07;99473.31;;;27.80;52.04
38038;BME280;23843;51.320;12.340;2023-07-28T11:51:37;99471.66;;;27.79;52.92
38038;BME280;23843;51.320;12.340;2023-07-28T11:54:02;99474.19;;;27.73;52.62
38038;BME280;23843;51.320;12.340;2023-07-28T11:56:30;99471.84;;;27.84;53.17
38038;BME280;23843;51.320;12.340;2023-07-28T11:58:56;99479.56;;;27.93;52.86
38038;BME280;23843;51.320;12.340;2023-07-28T12:01:21;99477.63;;;28.01;52.21
38038;BME280;23843;51.320;12.340;2023-07-28T12:03:47;99481.63;;;27.98;51.67
38038;BME280;23843;51.320;12.340;2023-07-28T12:06:12;99486.19;;;28.04;52.31
38038;BME280;23843;51.320;12.340;2023-07-28T12:08:38;99487.69;;;28.00;50.10
38038;BME280;23843;51.320;12.340;2023-07-28T12:11:04;99502.72;;;28.09;50.69
38038;BME280;23843;51.320;12.340;2023-07-28T12:13:31;99489.50;;;28.13;51.27
38038;BME280;23843;51.320;12.340;2023-07-28T12:15:56;99485.59;;;28.02;50.63
38038;BME280;23843;51.320;12.340;2023-07-28T12:18:29;99488.16;;;27.90;51.54
38038;BME280;23843;51.320;12.340;2023-07-28T12:20:55;99494.03;;;27.81;51.88
38038;BME280;23843;51.320;12.340;2023-07-28T12:23:22;99488.19;;;27.77;52.99
38038;BME280;23843;51.320;12.340;2023-07-28T12:25:48;99493.84;;;27.82;52.65
38038;BME280;23843;51.320;12.340;2023-07-28T12:28:14;99495.50;;;27.90;53.09
38038;BME280;23843;51.320;12.340;2023-07-28T12:30:41;99494.88;;;27.88;52.49
38038;BME280;23843;51.320;12.340;2023-07-28T12:33:07;99491.53;;;27.86;52.78
38038;BME280;23843;51.320;12.340;2023-07-28T12:35:33;99492.97;;;27.82;52.58
38038;BME280;23843;51.320;12.340;2023-07-28T12:37:59;99494.97;;;27.61;53.12
38038;BME280;23843;51.320;12.340;2023-07-28T12:40:26;99494.34;;;27.52;53.29